Grove, United Kingdom
Current Conditions -  °F | °C
As of 5:50 PM on Wednesday 26 Nov 2014 (Local Time) from EGVN Reporting Station
Haze Haze  
Wind Chill: 46°   Ceiling: 400
Heat Index: 46°   Visibility: 1.3mi
Dew Point: 45°   Wind: 3mph
Humidity: 93%   Direction: 360°N
Pressure: 29.8"   Gusts: NA
Location:  51.61°N, 1.42°W
Report Text: EGVN 261750Z 36003KT 2200 BR SCT002 OVC004 08/07 Q1009 AMB TEMPO 3000 FEW002 OVC004 YLO2
Loading
Personal Weather Stations






























Interactive Weather Map New forecast layout! Learn more

10-Day Weather Forecast

Advertisements
Track Severe Weather on mobile